createdAt,value
2019-05-03T00:00:59.716Z,65.29
2019-05-03T00:06:03.337Z,65.50
2019-05-03T00:11:05.071Z,62.56
2019-05-03T00:16:23.895Z,62.45
2019-05-03T00:21:25.566Z,62.64
2019-05-03T00:26:27.147Z,62.67
2019-05-03T00:31:29.047Z,61.98
2019-05-03T00:36:32.939Z,61.84
2019-05-03T00:41:34.651Z,61.96
2019-05-03T00:46:36.107Z,61.80
2019-05-03T00:51:37.703Z,64.00
2019-05-03T00:56:43.967Z,63.70
2019-05-03T01:01:43.750Z,66.94
2019-05-03T01:06:45.327Z,67.02
2019-05-03T01:11:46.914Z,68.62
2019-05-03T01:16:48.499Z,67.13
2019-05-03T01:21:51.527Z,65.35
2019-05-03T01:26:53.142Z,65.67
2019-05-03T01:31:54.619Z,67.06
2019-05-03T01:36:56.175Z,68.33
2019-05-03T01:41:57.649Z,67.88
2019-05-03T01:47:02.308Z,65.95
2019-05-03T01:52:14.927Z,65.13
2019-05-03T01:57:16.401Z,65.26
2019-05-03T02:02:28.831Z,64.22
2019-05-03T02:07:31.646Z,63.15
2019-05-03T02:12:33.194Z,65.20
2019-05-03T02:17:34.782Z,64.27
2019-05-03T02:22:36.369Z,63.80
2019-05-03T02:27:37.841Z,62.52
2019-05-03T02:32:39.407Z,64.38
2019-05-03T02:37:43.854Z,63.37
2019-05-03T02:43:05.669Z,62.89
2019-05-03T02:48:12.172Z,61.94
2019-05-03T02:53:15.221Z,63.17
2019-05-03T02:58:17.145Z,63.64
2019-05-03T03:03:19.059Z,63.38
2019-05-03T03:08:22.146Z,62.80
2019-05-03T03:13:28.100Z,63.88
2019-05-03T03:18:36.420Z,64.65
2019-05-03T03:23:56.265Z,63.95
2019-05-03T03:29:06.935Z,63.84
2019-05-03T03:34:10.817Z,64.16
2019-05-03T03:39:14.974Z,63.63
2019-05-03T03:44:20.047Z,63.93
2019-05-03T03:49:21.776Z,63.71
2019-05-03T03:54:25.802Z,63.16
2019-05-03T03:59:28.158Z,66.57
2019-05-03T04:04:30.131Z,69.32
2019-05-03T04:09:31.949Z,69.42
2019-05-03T04:14:36.694Z,68.66
2019-05-03T04:19:40.390Z,67.07
2019-05-03T04:24:42.180Z,66.72
2019-05-03T04:29:45.410Z,68.92
2019-05-03T04:34:47.232Z,71.17
2019-05-03T04:39:48.749Z,71.22
2019-05-03T04:44:50.283Z,71.98
2019-05-03T04:49:51.815Z,72.14
2019-05-03T04:54:56.270Z,71.85
2019-05-03T04:59:58.420Z,72.53
2019-05-03T05:04:59.905Z,71.69
2019-05-03T05:10:05.171Z,70.41
2019-05-03T05:15:07.226Z,69.62
2019-05-03T05:20:24.875Z,70.42
2019-05-03T05:25:28.706Z,70.46
2019-05-03T05:30:31.195Z,69.74
2019-05-03T05:35:32.793Z,68.88
2019-05-03T05:40:35.022Z,71.09
2019-05-03T05:45:36.593Z,71.51
2019-05-03T05:50:44.761Z,74.17
2019-05-03T05:55:47.933Z,77.22
2019-05-03T06:00:55.160Z,79.83
2019-05-03T06:05:58.730Z,79.00
2019-05-03T06:11:05.175Z,77.56
2019-05-03T06:16:08.787Z,79.74
2019-05-03T06:21:15.206Z,78.46
2019-05-03T06:26:35.340Z,74.62
2019-05-03T06:31:40.086Z,75.33
2019-05-03T06:36:44.281Z,73.50
2019-05-03T06:41:45.955Z,75.02
2019-05-03T06:46:49.544Z,74.02
2019-05-03T06:51:51.173Z,73.66
2019-05-03T06:56:52.700Z,73.24
2019-05-03T07:02:05.702Z,71.17
2019-05-03T07:07:07.371Z,71.09
2019-05-03T07:12:10.056Z,72.55
2019-05-03T07:17:11.681Z,71.02
2019-05-03T07:22:15.131Z,70.38
2019-05-03T07:27:16.591Z,70.28
2019-05-03T07:32:18.227Z,73.10
2019-05-03T07:37:19.700Z,75.01
2019-05-03T07:42:22.274Z,74.62
2019-05-03T07:47:24.607Z,73.45
2019-05-03T07:52:26.298Z,74.82
2019-05-03T07:57:30.854Z,71.39
2019-05-03T08:02:32.765Z,71.54
2019-05-03T08:07:35.629Z,74.18
2019-05-03T08:12:37.295Z,73.46
2019-05-03T08:17:38.917Z,71.02
2019-05-03T08:22:40.442Z,69.62
2019-05-03T08:27:42.181Z,66.87
2019-05-03T08:32:48.393Z,64.82
2019-05-03T08:37:51.678Z,66.38
2019-05-03T08:42:55.022Z,65.19
2019-05-03T08:47:57.288Z,66.04
2019-05-03T08:52:58.773Z,69.50
2019-05-03T08:58:00.295Z,62.11
2019-05-03T09:03:01.774Z,61.46
2019-05-03T09:08:05.682Z,61.44
2019-05-03T09:13:07.972Z,62.08
2019-05-03T09:18:09.655Z,62.60
2019-05-03T09:23:11.311Z,62.37
2019-05-03T09:28:14.906Z,64.52
2019-05-03T09:33:16.950Z,63.22
2019-05-03T09:38:18.490Z,61.42
2019-05-03T09:43:20.180Z,60.51
2019-05-03T09:48:22.259Z,61.18
2019-05-03T09:53:25.755Z,62.08
2019-05-03T09:58:27.277Z,61.13
2019-05-03T10:03:28.886Z,61.08
2019-05-03T10:08:30.428Z,60.95
2019-05-03T10:13:32.021Z,58.81
2019-05-03T10:18:35.311Z,62.52
2019-05-03T10:23:38.796Z,60.59
2019-05-03T10:28:40.310Z,61.13
2019-05-03T10:33:45.038Z,63.62
2019-05-03T10:38:47.915Z,56.77
2019-05-03T10:43:49.391Z,55.28
2019-05-03T10:48:50.997Z,53.35
2019-05-03T10:53:54.817Z,56.95
2019-05-03T10:59:01.441Z,58.65
2019-05-03T11:04:05.326Z,57.83
2019-05-03T11:09:07.760Z,57.41
2019-05-03T11:14:09.538Z,61.08
2019-05-03T11:19:11.219Z,58.41
2019-05-03T11:24:14.724Z,57.89
2019-05-03T11:29:16.186Z,59.85
2019-05-03T11:48:34.948Z,64.89
2019-05-03T11:53:36.712Z,68.70
2019-05-03T11:58:38.184Z,71.57
2019-05-03T12:03:45.196Z,72.16
2019-05-03T12:08:46.919Z,72.95
2019-05-03T12:14:01.445Z,73.32
2019-05-03T12:18:53.962Z,74.11
2019-05-03T12:23:56.571Z,76.08
2019-05-03T12:28:58.591Z,75.63
2019-05-03T12:34:00.067Z,74.08
2019-05-03T12:39:01.538Z,73.34
2019-05-03T12:44:05.062Z,73.91
2019-05-03T12:49:07.759Z,74.41
2019-05-03T12:54:09.224Z,75.33
2019-05-03T12:59:12.621Z,74.12
2019-05-03T13:04:19.263Z,73.37
2019-05-03T13:09:20.912Z,73.89
2019-05-03T13:14:22.513Z,72.80
2019-05-03T13:19:25.769Z,74.91
2019-05-03T13:24:27.314Z,73.26
2019-05-03T13:29:28.989Z,74.34
2019-05-03T13:34:30.563Z,73.27
2019-05-03T13:39:32.346Z,71.53
2019-05-03T13:44:35.582Z,72.99
2019-05-03T13:49:37.312Z,71.92
2019-05-03T13:54:38.782Z,72.43
2019-05-03T13:59:40.270Z,70.87
2019-05-03T14:04:50.161Z,71.77
2019-05-03T14:09:45.337Z,71.66
2019-05-03T14:14:55.332Z,71.70
2019-05-03T14:19:58.404Z,70.99
2019-05-03T14:24:59.847Z,72.68
2019-05-03T14:30:07.345Z,71.88
2019-05-03T14:35:10.177Z,73.17
2019-05-03T14:40:14.508Z,69.55
2019-05-03T14:45:15.858Z,67.45
2019-05-03T14:50:17.847Z,67.80
2019-05-03T14:55:37.954Z,69.02
2019-05-03T15:00:45.486Z,69.58
2019-05-03T15:05:47.177Z,69.55
2019-05-03T15:10:48.643Z,68.92
2019-05-03T15:15:50.592Z,68.31
2019-05-03T15:20:52.076Z,67.64
2019-05-03T15:25:54.593Z,67.81
2019-05-03T15:30:56.373Z,69.17
2019-05-03T15:35:57.858Z,67.12
2019-05-03T15:40:59.362Z,69.05
2019-05-03T15:46:05.369Z,67.91
2019-05-03T15:51:06.911Z,68.40
2019-05-03T15:56:08.439Z,70.25
2019-05-03T16:01:10.121Z,69.97
2019-05-03T16:06:11.815Z,70.27
2019-05-03T16:11:14.823Z,69.04
2019-05-03T16:16:16.774Z,71.00
2019-05-03T16:21:18.630Z,68.66
2019-05-03T16:26:20.206Z,68.36
2019-05-03T16:31:24.861Z,68.23
2019-05-03T16:36:27.577Z,69.43
2019-05-03T16:41:29.061Z,69.83
2019-05-03T16:46:30.635Z,70.34
2019-05-03T16:51:32.269Z,69.83
2019-05-03T16:56:35.370Z,71.24
2019-05-03T17:01:37.102Z,73.28
2019-05-03T17:06:40.484Z,70.63
2019-05-03T17:11:41.997Z,69.35
2019-05-03T17:16:45.055Z,69.39
2019-05-03T17:21:46.795Z,69.45
2019-05-03T17:26:48.551Z,70.87
2019-05-03T17:31:50.143Z,69.26
2019-05-03T17:36:51.678Z,69.98
2019-05-03T17:42:00.909Z,69.17
2019-05-03T17:47:04.315Z,69.60
2019-05-03T17:52:05.982Z,69.84
2019-05-03T17:57:15.489Z,70.49
2019-05-03T18:02:21.788Z,70.73
2019-05-03T18:07:30.374Z,71.41
2019-05-03T18:12:31.410Z,71.37
2019-05-03T18:17:35.125Z,71.02
2019-05-03T18:22:36.658Z,70.64
2019-05-03T18:27:38.339Z,71.40
2019-05-03T18:32:50.794Z,71.79
2019-05-03T18:37:58.550Z,70.93
2019-05-03T18:43:04.984Z,70.68
2019-05-03T18:48:06.558Z,70.85
2019-05-03T18:53:08.736Z,70.50
2019-05-03T18:58:10.849Z,71.59
2019-05-03T19:03:12.682Z,71.28
2019-05-03T19:08:17.298Z,71.12
2019-05-03T19:13:26.610Z,71.57
2019-05-03T19:18:30.142Z,71.02
2019-05-03T19:23:32.079Z,70.77
2019-05-03T19:28:35.270Z,71.74
2019-05-03T19:33:37.416Z,72.31
2019-05-03T19:38:39.020Z,72.87
2019-05-03T19:43:40.599Z,71.11
2019-05-03T19:48:42.091Z,70.75
2019-05-03T19:53:45.468Z,71.76
2019-05-03T19:58:47.621Z,71.18
2019-05-03T20:04:07.658Z,71.45
2019-05-03T20:09:11.036Z,71.72
2019-05-03T20:14:14.754Z,71.63
2019-05-03T20:19:20.868Z,71.08
2019-05-03T20:24:19.491Z,72.97
2019-05-03T20:29:21.079Z,72.18
2019-05-03T20:34:24.741Z,72.21
2019-05-03T20:39:26.057Z,72.34
2019-05-03T20:44:35.239Z,73.87
2019-05-03T20:49:36.617Z,72.34
2019-05-03T20:54:38.137Z,73.36
2019-05-03T20:59:45.187Z,73.96
2019-05-03T21:04:44.746Z,72.42
2019-05-03T21:09:46.697Z,72.93
2019-05-03T21:14:48.284Z,72.85
2019-05-03T21:19:55.157Z,74.32
2019-05-03T21:25:01.541Z,76.13
2019-05-03T21:30:08.087Z,75.72
2019-05-03T21:35:09.969Z,75.29
2019-05-03T21:40:12.291Z,74.09
2019-05-03T21:45:15.978Z,75.25
2019-05-03T21:50:19.288Z,73.61
2019-05-03T21:55:20.803Z,74.34
2019-05-03T22:00:24.782Z,74.29
2019-05-03T22:05:28.158Z,74.61
2019-05-03T22:10:29.768Z,74.67
2019-05-03T22:15:34.767Z,74.87
2019-05-03T22:20:36.334Z,75.18
2019-05-03T22:25:39.802Z,75.48
2019-05-03T22:30:41.287Z,76.63
2019-05-03T22:35:44.506Z,76.23
2019-05-03T22:40:46.775Z,75.87
2019-05-03T22:45:48.382Z,75.90
2019-05-03T22:50:49.846Z,76.03
2019-05-03T22:55:51.803Z,76.33
2019-05-03T23:00:55.013Z,76.82
2019-05-03T23:05:56.766Z,77.54
2019-05-03T23:10:58.265Z,77.34
2019-05-03T23:15:59.718Z,77.18
2019-05-03T23:21:15.256Z,76.83
2019-05-03T23:26:17.280Z,76.29
2019-05-03T23:31:18.738Z,75.42
2019-05-03T23:36:32.516Z,78.33
2019-05-03T23:41:24.527Z,78.50
2019-05-03T23:46:28.106Z,77.73
2019-05-03T23:51:47.982Z,76.76
2019-05-03T23:56:49.509Z,77.27
